Time;durP1;ratioP1;P1;durP2;ratioP2;P2;SDS_P1;SDS_P2;PMS_P1;PMS_P2;Temp;Humidity;BMP_temperature;BMP_pressure;BME280_temperature;BME280_humidity;BME280_pressure;Samples;Min_cycle;Max_cycle;Signal;HPM_P1;HPM_P2
2022/10/18 00:00:48;;;;;;;18.97;16.47;;;18.10;90.70;;;20.98;63.58;102439.72;5035116;28;20643;-54
2022/10/18 00:03:15;;;;;;;20.53;17.63;;;18.10;90.70;;;21.01;63.84;102438.50;5035114;28;20221;-56
2022/10/18 00:05:42;;;;;;;19.03;17.13;;;18.20;90.70;;;21.01;63.31;102439.34;5029044;28;20265;-54
2022/10/18 00:08:10;;;;;;;21.97;19.73;;;18.20;90.70;;;21.01;63.72;102443.84;5015376;28;20278;-54
2022/10/18 00:10:38;;;;;;;20.23;18.23;;;18.20;90.70;;;21.01;63.10;102449.22;5017503;28;20249;-55
2022/10/18 00:13:06;;;;;;;19.13;17.13;;;18.20;90.70;;;21.00;63.23;102442.19;5035087;28;20217;-56
2022/10/18 00:15:33;;;;;;;20.07;17.93;;;18.20;90.70;;;21.00;63.77;102437.66;5035031;28;20202;-54
2022/10/18 00:18:01;;;;;;;17.77;16.07;;;18.20;90.70;;;21.00;63.65;102437.66;5034814;28;20190;-54
2022/10/18 00:20:28;;;;;;;22.93;17.30;;;18.20;90.70;;;20.98;63.50;102447.75;5035028;28;20195;-57
2022/10/18 00:22:55;;;;;;;21.30;19.07;;;18.20;90.60;;;20.97;63.36;102453.31;5034576;28;20680;-56
2022/10/18 00:25:23;;;;;;;21.23;18.87;;;18.20;90.60;;;20.94;63.14;102449.19;5035052;28;20198;-55
2022/10/18 00:27:51;;;;;;;20.03;17.87;;;18.10;90.60;;;20.94;63.61;102451.88;5034847;28;20197;-56
2022/10/18 00:30:19;;;;;;;20.23;18.23;;;18.10;90.60;;;20.93;63.38;102451.03;5034737;28;20691;-55
2022/10/18 00:32:46;;;;;;;20.90;18.83;;;18.10;90.70;;;20.94;63.09;102458.03;5032812;28;20285;-55
2022/10/18 00:35:13;;;;;;;18.87;16.87;;;18.10;90.70;;;20.96;63.84;102447.13;5034930;28;20252;-55
2022/10/18 00:37:41;;;;;;;21.37;19.27;;;18.10;90.70;;;20.97;63.24;102448.78;5034709;28;20190;-56
2022/10/18 00:40:09;;;;;;;20.23;18.30;;;18.10;90.70;;;20.98;63.74;102442.41;5034241;28;20220;-56
2022/10/18 00:42:37;;;;;;;18.13;16.30;;;18.10;90.70;;;20.98;63.46;102450.44;5033802;28;20230;-56
2022/10/18 00:45:25;;;;;;;19.90;17.90;;;18.10;90.70;;;20.92;63.80;102452.06;5034479;28;20632;-57
2022/10/18 00:47:58;;;;;;;20.17;18.17;;;18.10;90.70;;;20.95;63.68;102456.19;5034570;28;20252;-55
2022/10/18 00:50:31;;;;;;;20.37;18.20;;;18.10;90.60;;;20.94;63.51;102454.56;5033963;28;20296;-57
2022/10/18 00:53:03;;;;;;;21.97;19.77;;;18.10;90.60;;;20.93;63.06;102450.22;5013604;28;20231;-54
2022/10/18 00:55:32;;;;;;;21.80;19.60;;;18.10;90.60;;;20.92;63.71;102453.91;5015829;28;20191;-55
2022/10/18 00:58:02;;;;;;;22.27;19.93;;;18.10;90.60;;;20.90;63.29;102461.31;5034231;28;20202;-55
2022/10/18 01:00:31;;;;;;;22.63;20.33;;;18.10;90.60;;;20.89;63.87;102465.03;5033990;28;20186;-55
2022/10/18 01:02:59;;;;;;;20.23;18.10;;;18.10;90.70;;;20.87;63.92;102465.22;5034175;28;20241;-55
2022/10/18 01:05:26;;;;;;;19.80;17.80;;;18.10;90.70;;;20.84;63.94;102465.63;5034082;28;20186;-56
2022/10/18 01:08:22;;;;;;;21.87;19.40;;;18.10;90.60;;;20.74;63.77;102469.69;5034073;28;20221;-55
2022/10/18 01:11:06;;;;;;;24.33;20.43;;;18.00;90.50;;;20.68;63.93;102473.97;5033541;28;20217;-53
2022/10/18 01:13:55;;;;;;;25.53;19.80;;;18.10;90.40;;;20.60;63.77;102470.66;5034008;28;20272;-56
2022/10/18 01:16:33;;;;;;;24.87;21.17;;;18.00;90.30;;;20.53;64.28;102472.47;5029414;28;20257;-56
2022/10/18 01:19:10;;;;;;;25.13;22.50;;;17.90;90.30;;;20.45;63.92;102468.09;5014380;28;20325;-56
2022/10/18 01:21:47;;;;;;;22.80;19.83;;;17.90;90.40;;;20.41;64.36;102468.69;5014020;28;20318;-57
2022/10/18 01:24:54;;;;;;;23.27;20.13;;;17.90;90.40;;;20.33;64.00;102468.81;5013814;28;20261;-56
2022/10/18 01:27:48;;;;;;;18.03;16.23;;;17.80;90.50;;;20.34;64.71;102462.47;4999430;28;20217;-57
2022/10/18 01:30:38;;;;;;;19.97;17.97;;;17.80;90.70;;;20.38;64.18;102464.56;5027268;28;20225;-55
2022/10/18 01:33:20;;;;;;;17.20;15.40;;;17.80;90.80;;;20.44;64.50;102461.09;5033128;28;20384;-56
2022/10/18 01:35:55;;;;;;;20.27;18.27;;;17.70;90.80;;;20.48;63.88;102464.19;5033327;28;20294;-57
2022/10/18 01:38:27;;;;;;;21.83;19.57;;;17.70;90.70;;;20.48;64.08;102467.72;5033710;28;20194;-57
2022/10/18 01:40:57;;;;;;;23.07;20.57;;;17.70;90.70;;;20.49;63.70;102468.53;5032684;28;20202;-57
2022/10/18 01:43:28;;;;;;;20.23;18.23;;;17.70;90.60;;;20.46;64.08;102471.59;5033293;28;20225;-57
2022/10/18 01:45:59;;;;;;;19.30;17.27;;;17.70;90.60;;;20.45;63.64;102464.59;5033275;28;20221;-57
2022/10/18 01:48:29;;;;;;;18.57;16.67;;;17.70;90.70;;;20.45;64.33;102464.59;5033690;28;20229;-57
2022/10/18 01:50:57;;;;;;;18.80;16.93;;;17.70;90.80;;;20.48;63.90;102466.88;5029086;28;20256;-57
2022/10/18 01:53:29;;;;;;;18.67;16.77;;;17.70;90.90;;;20.51;64.23;102458.47;5033081;28;20253;-57
2022/10/18 01:56:19;;;;;;;20.37;17.90;;;17.70;91.00;;;20.50;64.03;102467.50;5029450;28;20548;-54
2022/10/18 01:59:12;;;;;;;19.43;17.47;;;17.70;91.00;;;20.54;64.05;102461.56;5014116;28;20590;-54
2022/10/18 02:01:54;;;;;;;25.23;20.43;;;17.70;90.90;;;20.54;64.30;102463.44;5013636;28;20195;-56
2022/10/18 02:04:34;;;;;;;22.17;19.80;;;17.70;90.90;;;20.56;64.13;102456.03;5013477;28;20652;-54
2022/10/18 02:07:16;;;;;;;26.53;21.73;;;17.70;90.90;;;20.54;63.97;102458.06;5013855;28;20519;-54
2022/10/18 02:09:51;;;;;;;21.90;19.53;;;17.80;91.00;;;20.56;63.70;102456.03;5013642;28;20199;-54
2022/10/18 02:12:21;;;;;;;19.10;17.20;;;17.80;91.00;;;20.55;64.04;102451.69;5015780;28;20218;-57
2022/10/18 02:14:50;;;;;;;19.53;17.53;;;17.70;90.90;;;20.55;64.10;102449.00;5017936;28;20222;-56
2022/10/18 02:17:24;;;;;;;24.33;21.83;;;17.70;90.90;;;20.50;63.64;102441.56;5013598;28;20191;-56
2022/10/18 02:19:55;;;;;;;24.27;19.63;;;17.80;90.80;;;20.49;63.98;102444.47;5013436;28;20222;-57
2022/10/18 02:22:30;;;;;;;23.60;19.30;;;17.70;90.80;;;20.46;64.32;102439.50;5012961;28;20219;-54
2022/10/18 02:25:02;;;;;;;21.57;19.27;;;17.70;90.80;;;20.44;64.10;102441.56;5017535;28;20286;-55
2022/10/18 02:27:30;;;;;;;21.10;19.00;;;17.70;90.90;;;20.45;64.52;102437.84;5033315;28;20244;-57
2022/10/18 02:29:58;;;;;;;20.83;18.63;;;17.70;90.90;;;20.45;64.10;102444.00;5032865;28;20187;-56
2022/10/18 02:32:34;;;;;;;20.27;17.73;;;17.70;90.90;;;20.43;64.20;102439.88;5032301;28;20691;-56
2022/10/18 02:35:07;;;;;;;23.00;19.87;;;17.70;91.00;;;20.45;64.08;102437.84;5032787;28;20190;-56
2022/10/18 02:37:38;;;;;;;22.30;19.93;;;17.70;91.00;;;20.45;64.14;102435.16;5013573;28;20198;-57
2022/10/18 02:40:09;;;;;;;21.13;18.93;;;17.70;91.00;;;20.47;64.00;102435.78;5025481;28;20470;-56
2022/10/18 02:42:39;;;;;;;22.47;20.23;;;17.70;91.10;;;20.48;64.46;102424.06;5032634;28;20665;-55
2022/10/18 02:45:07;;;;;;;21.63;19.20;;;17.70;91.00;;;20.49;64.46;102423.06;5032938;28;20194;-55
2022/10/18 02:47:35;;;;;;;20.67;18.03;;;17.70;91.00;;;20.49;64.14;102433.75;5033013;28;20244;-53
2022/10/18 02:50:04;;;;;;;19.57;17.57;;;17.70;91.00;;;20.49;64.44;102431.88;5032947;28;20557;-56
2022/10/18 02:52:31;;;;;;;22.70;20.30;;;17.70;90.90;;;20.49;63.92;102433.75;5032675;28;20218;-56
2022/10/18 02:54:58;;;;;;;21.20;18.40;;;17.70;90.90;;;20.48;63.74;102427.56;5032839;28;20190;-54
2022/10/18 02:57:26;;;;;;;25.37;22.23;;;17.70;90.80;;;20.49;63.56;102431.88;5032637;28;20270;-56
2022/10/18 02:59:53;;;;;;;26.17;22.43;;;17.70;90.80;;;20.43;64.16;102429.19;5032377;28;20656;-56
2022/10/18 03:02:20;;;;;;;21.97;19.60;;;17.70;90.60;;;20.36;64.00;102423.81;5031976;28;20252;-55
2022/10/18 03:04:49;;;;;;;23.90;21.30;;;17.70;90.60;;;20.37;64.07;102421.97;5032641;28;20190;-58
2022/10/18 03:07:16;;;;;;;23.57;21.07;;;17.70;90.70;;;20.38;63.86;102427.09;5032582;28;20227;-55
2022/10/18 03:09:44;;;;;;;27.60;21.30;;;17.60;90.70;;;20.40;64.42;102429.56;5032906;28;20199;-53
2022/10/18 03:12:11;;;;;;;34.17;24.23;;;17.60;90.80;;;20.42;64.12;102427.53;5033647;28;20252;-55
2022/10/18 03:14:39;;;;;;;31.33;24.70;;;17.60;90.90;;;20.40;63.71;102429.56;5031939;28;20660;-57
2022/10/18 03:17:06;;;;;;;32.23;25.80;;;17.60;90.90;;;20.39;64.09;102420.75;5036568;28;20707;-57
2022/10/18 03:19:33;;;;;;;33.70;24.60;;;17.60;90.90;;;20.37;64.11;102435.34;5037728;28;20190;-57
2022/10/18 03:22:02;;;;;;;29.93;23.80;;;17.50;90.90;;;20.33;64.36;102426.88;5037645;28;20198;-57
2022/10/18 03:24:29;;;;;;;28.00;22.90;;;17.50;90.90;;;20.31;63.76;102431.59;5037625;28;20194;-57
2022/10/18 03:26:56;;;;;;;31.87;23.07;;;17.50;90.90;;;20.30;64.17;102442.50;5038230;28;20266;-57
2022/10/18 03:29:24;;;;;;;28.77;21.87;;;17.50;90.90;;;20.27;64.20;102440.22;5038094;28;20197;-55
2022/10/18 03:31:51;;;;;;;28.00;22.17;;;17.50;90.90;;;20.25;64.32;102435.06;5037869;28;20244;-57
2022/10/18 03:34:18;;;;;;;30.97;20.53;;;17.50;91.00;;;20.24;64.43;102442.25;5038145;28;20721;-57
2022/10/18 03:36:46;;;;;;;24.20;20.80;;;17.40;91.00;;;20.23;63.74;102435.25;5038199;28;20656;-57
2022/10/18 03:39:14;;;;;;;24.17;20.23;;;17.40;91.00;;;20.21;63.66;102442.59;5038567;28;20190;-57
2022/10/18 03:41:42;;;;;;;24.83;20.80;;;17.40;91.00;;;20.19;64.16;102439.31;5037463;28;20601;-57
2022/10/18 03:44:09;;;;;;;21.60;19.10;;;17.40;91.00;;;20.14;63.99;102433.72;5038384;28;20264;-57
2022/10/18 03:46:36;;;;;;;24.43;19.67;;;17.30;90.90;;;20.07;64.30;102435.53;5038078;28;20199;-57
2022/10/18 03:49:04;;;;;;;22.00;19.13;;;17.30;90.90;;;20.05;63.76;102437.56;5036800;28;20735;-56
2022/10/18 03:51:31;;;;;;;22.60;19.67;;;17.20;90.90;;;20.03;63.86;102434.25;5035123;28;20207;-54
2022/10/18 03:53:58;;;;;;;24.20;19.87;;;17.20;91.30;;;20.02;64.25;102431.75;5035542;28;20218;-54
2022/10/18 03:56:27;;;;;;;26.93;21.30;;;17.20;91.10;;;20.03;64.29;102423.56;5034484;28;20194;-54
2022/10/18 03:58:55;;;;;;;21.67;18.03;;;17.20;91.10;;;20.04;64.40;102414.50;5036001;28;20207;-56
2022/10/18 04:01:23;;;;;;;24.97;18.63;;;17.20;91.10;;;19.99;64.45;102422.28;5035141;28;20534;-54
2022/10/18 04:03:50;;;;;;;29.77;20.47;;;17.20;90.90;;;19.96;63.91;102422.69;5035463;28;20613;-56
2022/10/18 04:06:17;;;;;;;35.03;20.00;;;17.20;90.90;;;19.93;63.90;102433.78;5035118;28;20191;-56
2022/10/18 04:08:45;;;;;;;27.93;20.27;;;17.20;90.90;;;19.91;64.47;102435.81;5035131;28;20194;-53
2022/10/18 04:11:12;;;;;;;30.20;18.60;;;17.10;90.90;;;19.91;64.22;102424.28;5034603;28;20210;-56
2022/10/18 04:13:41;;;;;;;39.17;20.83;;;17.10;91.00;;;19.92;64.16;102426.75;5034978;28;20284;-55
2022/10/18 04:16:08;;;;;;;30.23;18.50;;;17.10;91.00;;;19.91;64.29;102429.63;5035375;28;20256;-53
2022/10/18 04:18:37;;;;;;;22.10;16.17;;;17.10;91.00;;;19.90;64.02;102425.28;5034797;28;20241;-55
2022/10/18 04:21:04;;;;;;;30.10;20.47;;;17.10;91.10;;;19.90;64.01;102434.16;5034246;28;20194;-55
2022/10/18 04:23:32;;;;;;;35.10;23.43;;;17.10;91.20;;;19.90;64.25;102428.81;5034793;28;20287;-56
2022/10/18 04:26:05;;;;;;;31.63;22.67;;;17.00;91.20;;;19.90;64.64;102428.81;5034962;28;20240;-54
2022/10/18 04:28:33;;;;;;;31.67;23.93;;;17.00;91.60;;;19.91;64.88;102433.16;5034651;28;20245;-55
2022/10/18 04:31:02;;;;;;;31.60;22.23;;;17.00;91.40;;;19.94;64.33;102429.25;5033847;28;20757;-55
2022/10/18 04:33:29;;;;;;;40.10;23.60;;;17.00;91.50;;;19.97;64.98;102427.00;5034676;28;20210;-54
2022/10/18 04:35:57;;;;;;;29.17;21.77;;;17.10;91.60;;;19.98;64.64;102425.16;5034822;28;20198;-54
2022/10/18 04:38:24;;;;;;;28.07;20.83;;;17.10;91.50;;;20.00;64.61;102423.94;5034701;28;20672;-54
2022/10/18 04:40:51;;;;;;;40.10;24.90;;;17.10;91.50;;;20.03;64.34;102428.09;5034062;28;20530;-54
2022/10/18 04:43:19;;;;;;;35.20;25.27;;;17.10;91.50;;;20.06;64.32;102427.69;5034387;28;20272;-54
2022/10/18 04:45:47;;;;;;;32.50;24.23;;;17.10;91.50;;;20.07;64.27;102434.69;5034865;28;20190;-54
2022/10/18 04:48:16;;;;;;;32.00;23.10;;;17.10;91.50;;;20.05;64.66;102426.88;5034378;28;20570;-56
2022/10/18 04:50:46;;;;;;;34.17;23.80;;;17.20;91.50;;;20.06;64.69;102417.81;5034085;28;20628;-53
2022/10/18 04:53:14;;;;;;;36.43;24.70;;;17.20;91.40;;;20.05;64.56;102416.19;5034450;28;20683;-55
2022/10/18 04:55:44;;;;;;;42.37;23.33;;;17.10;91.40;;;20.05;64.67;102413.50;5034713;28;20240;-54
2022/10/18 04:58:11;;;;;;;28.83;20.33;;;17.20;91.40;;;20.04;64.06;102424.41;5034187;28;20190;-53
2022/10/18 05:00:40;;;;;;;26.97;20.50;;;17.20;91.30;;;20.03;64.62;102422.75;5034174;28;20194;-54
2022/10/18 05:03:08;;;;;;;29.20;22.10;;;17.20;91.40;;;20.02;64.81;102427.25;5020586;28;20249;-54
2022/10/18 05:05:36;;;;;;;32.53;22.00;;;17.10;91.40;;;20.07;64.36;102424.00;5014398;28;20199;-54
2022/10/18 05:08:24;;;;;;;31.00;21.23;;;17.20;91.40;;;20.09;64.92;102420.09;5014395;28;20294;-56
2022/10/18 05:10:51;;;;;;;23.43;18.90;;;17.20;91.40;;;20.12;64.63;102426.91;5013968;28;20302;-56
2022/10/18 05:13:18;;;;;;;33.00;23.23;;;17.20;91.40;;;20.15;64.70;102424.69;5015536;28;20218;-54
2022/10/18 05:15:46;;;;;;;28.60;20.63;;;17.20;91.40;;;20.16;64.60;102423.66;5034540;28;20198;-57
2022/10/18 05:18:13;;;;;;;31.10;21.70;;;17.20;91.60;;;20.18;63.97;102426.94;5033749;28;20324;-56
2022/10/18 05:20:42;;;;;;;29.00;19.87;;;17.20;91.30;;;20.16;63.97;102434.34;5032990;28;20205;-57
2022/10/18 05:23:09;;;;;;;27.13;21.17;;;17.20;91.30;;;20.17;64.45;102432.50;5033181;28;20318;-56
2022/10/18 05:25:38;;;;;;;21.97;16.73;;;17.20;91.30;;;20.15;63.91;102424.69;5033515;28;20276;-57
2022/10/18 05:28:05;;;;;;;24.17;19.57;;;17.20;91.20;;;20.15;63.97;102426.53;5033432;28;20190;-57
2022/10/18 05:30:47;;;;;;;27.23;20.40;;;17.20;91.20;;;20.11;63.71;102431.41;5032947;28;20225;-54
2022/10/18 05:33:14;;;;;;;28.60;19.23;;;17.20;91.10;;;20.08;63.95;102431.84;5033001;28;20260;-54
2022/10/18 05:35:43;;;;;;;29.03;20.23;;;17.20;91.00;;;20.05;63.79;102432.22;5033611;28;20241;-57
2022/10/18 05:38:10;;;;;;;28.27;19.70;;;17.20;91.10;;;20.03;63.83;102431.59;5032822;28;20205;-55
2022/10/18 05:40:38;;;;;;;27.93;18.37;;;17.20;91.40;;;20.02;64.36;102435.28;5015566;28;20230;-57
2022/10/18 05:43:05;;;;;;;29.97;19.97;;;17.20;91.10;;;20.02;64.49;102443.28;5013311;28;20222;-57
2022/10/18 05:45:33;;;;;;;23.73;17.97;;;17.10;91.20;;;20.04;64.49;102446.59;5013487;28;20195;-56
2022/10/18 05:48:00;;;;;;;22.50;18.23;;;17.10;91.20;;;20.05;64.62;102437.56;5012928;28;20317;-54
2022/10/18 05:50:27;;;;;;;27.80;19.70;;;17.20;91.40;;;20.11;64.13;102442.13;5013120;28;20195;-57
2022/10/18 05:52:57;;;;;;;21.07;16.47;;;17.20;91.40;;;20.12;64.44;102432.25;5032719;28;20261;-57
2022/10/18 05:55:38;;;;;;;27.80;19.30;;;17.20;91.30;;;20.12;64.36;102445.63;5033174;28;20190;-56
2022/10/18 05:58:06;;;;;;;22.13;16.70;;;17.20;91.20;;;20.11;64.18;102442.13;5029264;28;20199;-57
2022/10/18 06:00:33;;;;;;;21.37;15.80;;;17.20;90.90;;;20.06;64.15;102449.09;5013015;28;20195;-56
2022/10/18 06:03:00;;;;;;;25.67;18.60;;;17.20;90.80;;;20.02;64.09;102448.63;5013223;28;20211;-53
2022/10/18 06:05:28;;;;;;;25.70;16.40;;;17.10;90.80;;;20.01;64.10;102456.88;5013097;28;20195;-55
2022/10/18 06:07:57;;;;;;;22.43;17.23;;;17.10;90.90;;;20.00;63.69;102450.69;5013032;28;20187;-56
2022/10/18 06:10:24;;;;;;;26.93;18.07;;;17.10;91.10;;;20.01;63.62;102452.34;5020923;28;20202;-56
2022/10/18 06:12:52;;;;;;;21.23;16.63;;;17.10;91.00;;;19.99;63.65;102449.03;5032914;28;20291;-58
2022/10/18 06:15:19;;;;;;;24.37;17.73;;;17.10;90.90;;;19.99;64.03;102450.91;5032889;28;20206;-54
2022/10/18 06:17:46;;;;;;;24.40;16.57;;;17.10;91.10;;;20.01;64.15;102460.38;5031699;28;20195;-57
2022/10/18 06:20:14;;;;;;;26.63;16.90;;;17.10;91.20;;;20.05;64.11;102458.13;5031844;28;20579;-57
2022/10/18 06:22:41;;;;;;;28.03;16.90;;;17.10;91.20;;;20.06;64.27;102457.91;5020692;28;20245;-56
2022/10/18 06:25:10;;;;;;;21.83;16.17;;;17.10;91.00;;;20.06;64.08;102451.75;5032690;28;20214;-56
2022/10/18 06:27:37;;;;;;;22.63;17.00;;;17.10;91.00;;;20.07;63.93;102451.56;5032933;28;20194;-57
2022/10/18 06:30:07;;;;;;;21.77;15.57;;;17.20;90.90;;;20.06;63.42;102460.59;5032955;28;20195;-57
2022/10/18 06:32:34;;;;;;;21.83;14.23;;;17.20;90.80;;;20.03;63.71;102461.00;5032336;28;20226;-59
2022/10/18 06:35:02;;;;;;;22.23;16.80;;;17.10;90.80;;;20.04;63.81;102472.53;5032505;28;20220;-56
2022/10/18 06:37:29;;;;;;;22.40;16.73;;;17.10;90.70;;;20.01;63.71;102479.09;5032865;28;20191;-57
2022/10/18 06:39:57;;;;;;;20.27;14.67;;;17.10;90.70;;;20.00;63.83;102479.25;5032575;28;20228;-55
2022/10/18 06:42:26;;;;;;;22.10;16.40;;;17.00;90.70;;;20.00;63.67;102477.41;5033632;28;20238;-56
2022/10/18 06:44:53;;;;;;;22.63;15.87;;;17.10;91.00;;;20.04;63.88;102483.22;5033015;28;20594;-55
2022/10/18 06:47:20;;;;;;;26.23;20.53;;;17.10;91.10;;;20.07;64.12;102485.50;5033117;28;20681;-56
2022/10/18 06:49:47;;;;;;;20.70;14.77;;;17.10;91.10;;;20.07;63.68;102489.00;5032510;28;20195;-54
2022/10/18 06:52:16;;;;;;;19.40;15.33;;;17.10;90.90;;;20.08;63.34;102495.19;5035923;28;20559;-55
2022/10/18 06:54:43;;;;;;;19.60;15.03;;;17.10;90.90;;;20.09;63.44;102486.94;5036408;28;20202;-53
2022/10/18 06:57:11;;;;;;;19.30;14.77;;;17.10;90.90;;;20.07;63.07;102491.66;5036983;28;20656;-54
2022/10/18 06:59:40;;;;;;;20.17;14.37;;;17.10;90.80;;;20.01;63.21;102492.44;5036816;28;20248;-57
2022/10/18 07:02:13;;;;;;;21.13;17.30;;;17.10;90.70;;;19.99;63.19;102499.00;5035712;28;20195;-56
2022/10/18 07:04:40;;;;;;;19.60;14.37;;;17.10;90.70;;;19.98;63.54;102500.03;5036493;28;20194;-56
2022/10/18 07:07:08;;;;;;;18.80;13.73;;;17.00;90.90;;;20.01;63.28;102496.97;5036209;28;20613;-56
2022/10/18 07:09:35;;;;;;;16.87;12.83;;;17.10;90.90;;;20.05;63.45;102511.59;5035899;28;20217;-57
2022/10/18 07:12:03;;;;;;;19.13;14.90;;;17.10;90.90;;;20.09;63.44;102503.00;5035736;28;20516;-56
2022/10/18 07:14:31;;;;;;;22.47;14.87;;;17.10;91.00;;;20.15;63.95;102514.78;5035860;28;20202;-54
2022/10/18 07:17:00;;;;;;;22.40;15.33;;;17.10;91.10;;;20.20;63.19;102520.38;5035792;28;20199;-57
2022/10/18 07:19:27;;;;;;;21.10;16.00;;;17.20;91.00;;;20.22;63.63;102519.19;5035521;28;20190;-57
2022/10/18 07:21:55;;;;;;;21.00;15.80;;;17.20;90.80;;;20.28;62.99;102532.81;5035180;28;20202;-55
2022/10/18 07:24:22;;;;;;;21.30;12.97;;;17.30;90.90;;;20.31;63.38;102538.59;5035524;28;20190;-58
2022/10/18 07:26:49;;;;;;;13.70;12.03;;;17.30;90.80;;;20.33;63.37;102525.00;5035488;28;20659;-55
2022/10/18 07:29:16;;;;;;;13.77;11.40;;;17.30;90.60;;;20.34;63.13;102532.03;5035780;28;20242;-57
2022/10/18 07:31:44;;;;;;;16.73;13.47;;;17.30;90.40;;;20.33;62.69;102541.06;5034741;28;20234;-55
2022/10/18 07:34:13;;;;;;;22.13;12.53;;;17.30;90.20;;;20.33;62.87;102536.53;5035753;28;20206;-55
2022/10/18 07:36:41;;;;;;;16.93;12.53;;;17.30;90.30;;;20.34;62.79;102534.69;5034068;28;20194;-57
2022/10/18 07:39:09;;;;;;;18.87;15.37;;;17.30;90.30;;;20.37;62.22;102547.69;5035188;28;20198;-57
2022/10/18 07:41:36;;;;;;;14.63;12.00;;;17.30;90.20;;;20.35;61.85;102545.19;5034778;28;20249;-57
2022/10/18 07:44:04;;;;;;;18.40;15.90;;;17.30;90.00;;;20.34;61.86;102542.72;5035281;28;20211;-57
2022/10/18 07:46:32;;;;;;;17.63;12.77;;;17.30;90.10;;;20.31;61.62;102553.78;5034457;28;20190;-57
2022/10/18 07:48:59;;;;;;;16.47;12.73;;;17.30;89.70;;;20.29;61.91;102555.84;5035054;28;20202;-58
2022/10/18 07:51:31;;;;;;;20.20;13.50;;;17.20;90.00;;;20.27;61.81;102552.53;5034689;28;20198;-55
2022/10/18 07:53:59;;;;;;;15.37;12.70;;;17.20;89.50;;;20.25;62.19;102545.53;5034994;28;20212;-56
2022/10/18 07:56:26;;;;;;;19.30;13.57;;;17.20;89.70;;;20.25;62.32;102560.78;5035170;28;20685;-55
2022/10/18 07:58:55;;;;;;;20.87;13.70;;;17.20;90.00;;;20.27;61.73;102568.59;5035270;28;20261;-58
2022/10/18 08:01:24;;;;;;;17.57;13.70;;;17.30;90.00;;;20.25;61.99;102572.28;5032726;28;20211;-55
2022/10/18 08:03:52;;;;;;;18.50;13.13;;;17.20;89.50;;;20.25;62.28;102572.28;5035112;28;20268;-56
2022/10/18 08:06:22;;;;;;;18.63;12.50;;;17.20;89.80;;;20.27;62.28;102573.94;5034382;28;20199;-56
2022/10/18 08:08:51;;;;;;;14.53;11.77;;;17.20;89.80;;;20.29;62.17;102574.56;5034840;28;20261;-57
2022/10/18 08:11:21;;;;;;;14.13;11.07;;;17.30;89.70;;;20.29;61.76;102571.88;5034151;28;20215;-54
2022/10/18 08:13:49;;;;;;;14.80;12.10;;;17.30;89.00;;;20.27;61.74;102572.09;5034940;28;20579;-56
2022/10/18 08:16:19;;;;;;;16.03;11.13;;;17.30;88.80;;;20.24;61.08;102570.63;5034761;28;20193;-54
2022/10/18 08:18:46;;;;;;;13.23;10.63;;;17.20;88.20;;;20.23;60.97;102568.97;5035115;28;20221;-56
2022/10/18 08:21:16;;;;;;;17.87;13.63;;;17.30;88.40;;;20.27;61.36;102557.88;5031859;28;20213;-57
2022/10/18 08:23:43;;;;;;;18.80;14.70;;;17.30;88.50;;;20.29;60.99;102563.88;5029999;28;20222;-57
2022/10/18 08:26:16;;;;;;;14.50;11.77;;;17.30;88.60;;;20.29;61.17;102555.84;5034300;28;20190;-56
2022/10/18 08:28:44;;;;;;;13.83;10.67;;;17.30;87.50;;;20.31;60.65;102554.63;5034068;28;20610;-56
2022/10/18 08:31:24;;;;;;;14.53;11.07;;;17.30;87.80;;;20.41;60.55;102554.28;5033476;28;20201;-55
2022/10/18 08:33:55;;;;;;;14.53;11.13;;;17.40;88.10;;;20.56;60.50;102563.06;5016529;28;20293;-56
2022/10/18 08:36:23;;;;;;;14.23;11.03;;;17.50;88.10;;;20.69;60.00;102560.47;5014175;28;20547;-54
2022/10/18 08:38:51;;;;;;;17.03;12.40;;;17.50;87.40;;;20.75;59.39;102551.66;5016547;28;20593;-57
2022/10/18 08:42:14;;;;;;;15.10;11.23;;;17.60;86.70;;;20.80;59.19;102554.56;5034328;28;20667;-56
2022/10/18 08:44:47;;;;;;;13.37;11.07;;;17.70;86.00;;;20.95;59.12;102557.94;5021601;28;20256;-57
2022/10/18 08:47:19;;;;;;;15.67;12.70;;;17.80;85.70;;;21.23;59.04;102550.69;5034264;28;20197;-56
2022/10/18 08:49:53;;;;;;;17.07;11.27;;;17.90;85.80;;;21.76;58.31;102551.66;5034327;28;20199;-55
2022/10/18 08:52:33;;;;;;;14.13;11.03;;;18.20;86.20;;;22.05;57.29;102555.84;5034030;28;20241;-56
2022/10/18 08:55:09;;;;;;;16.33;11.13;;;18.50;84.90;;;22.14;55.97;102557.31;5033001;28;20194;-57
2022/10/18 08:57:37;;;;;;;14.50;10.07;;;18.70;83.50;;;22.13;55.51;102542.25;5034461;28;20198;-58
2022/10/18 09:00:15;;;;;;;13.03;9.57;;;18.80;81.70;;;21.99;54.80;102545.94;5033794;28;20194;-55
2022/10/18 09:03:04;;;;;;;14.43;10.83;;;18.90;80.80;;;21.82;54.94;102555.41;5033310;28;20222;-56
2022/10/18 09:05:44;;;;;;;14.90;11.13;;;18.90;79.80;;;21.84;54.98;102553.34;5031351;28;20197;-56
2022/10/18 09:08:49;;;;;;;14.03;9.77;;;19.00;79.90;;;21.73;54.34;102551.25;5012837;28;20195;-58
2022/10/18 09:11:43;;;;;;;14.47;9.57;;;19.00;79.20;;;21.67;55.10;102552.06;5013648;28;20262;-56
2022/10/18 09:15:02;;;;;;;14.20;9.50;;;19.00;79.30;;;21.82;55.45;102550.03;5013344;28;20222;-56
2022/10/18 09:17:49;;;;;;;14.30;10.40;;;19.20;80.00;;;22.18;54.59;102548.63;5014911;28;20203;-55
2022/10/18 09:20:36;;;;;;;15.63;10.73;;;19.50;79.10;;;22.61;53.37;102548.22;5014038;28;20191;-56
2022/10/18 09:23:18;;;;;;;16.90;12.43;;;19.70;77.70;;;23.49;53.11;102555.56;5023965;28;20210;-54
2022/10/18 09:26:00;;;;;;;15.00;10.50;;;20.10;79.70;;;24.40;51.15;102559.50;4996374;28;20262;-56
2022/10/18 09:28:43;;;;;;;16.40;10.30;;;20.50;78.10;;;25.23;49.06;102549.06;5013438;28;20265;-57
2022/10/18 09:31:20;;;;;;;15.63;10.43;;;21.10;76.10;;;26.05;47.19;102553.72;5013137;28;20290;-55
2022/10/18 09:33:57;;;;;;;12.77;10.13;;;21.70;74.40;;;26.84;45.24;102553.16;5013416;28;20265;-58
2022/10/18 09:36:34;;;;;;;10.73;9.03;;;22.30;71.80;;;27.39;43.34;102545.38;5013749;28;20631;-57
2022/10/18 09:39:09;;;;;;;9.87;8.37;;;22.80;68.50;;;27.55;41.63;102550.03;5015828;28;20209;-57
2022/10/18 09:41:46;;;;;;;11.60;8.57;;;23.20;65.60;;;27.78;41.17;102555.31;5031815;28;20225;-57
2022/10/18 09:44:21;;;;;;;10.27;8.23;;;23.60;63.70;;;27.99;40.90;102543.78;5033066;28;20214;-54
2022/10/18 09:46:55;;;;;;;10.13;7.17;;;23.70;63.60;;;28.13;40.81;102547.78;5033258;28;20198;-54
2022/10/18 09:49:30;;;;;;;10.10;7.20;;;23.90;63.80;;;28.16;39.70;102551.91;5032497;28;20206;-56
2022/10/18 09:52:06;;;;;;;10.07;7.90;;;24.00;62.30;;;27.91;39.87;102552.25;5031917;28;20198;-55
2022/10/18 09:54:42;;;;;;;10.20;7.33;;;24.00;60.70;;;27.66;40.61;102549.13;5031310;28;20196;-57
2022/10/18 09:57:20;;;;;;;10.57;6.70;;;24.00;60.80;;;27.44;41.12;102553.59;5028626;28;20240;-55
2022/10/18 09:59:49;;;;;;;10.30;6.83;;;23.90;60.90;;;27.26;41.16;102551.88;5032029;28;20210;-57
2022/10/18 10:02:20;;;;;;;8.90;6.33;;;23.70;61.10;;;27.09;41.47;102556.41;5032430;28;20214;-56
2022/10/18 10:04:51;;;;;;;11.20;8.07;;;23.60;61.80;;;26.96;41.76;102561.25;5033111;28;20551;-56
2022/10/18 10:07:22;;;;;;;9.73;5.97;;;23.40;62.20;;;26.81;41.52;102570.66;5033300;28;20194;-56
2022/10/18 10:09:58;;;;;;;15.67;6.10;;;23.20;61.30;;;26.66;41.14;102570.31;5032799;28;20652;-57
2022/10/18 10:12:30;;;;;;;8.17;5.33;;;23.00;61.10;;;26.57;41.15;102568.22;5032497;28;20293;-56
2022/10/18 10:15:16;;;;;;;9.70;6.57;;;22.80;60.80;;;26.35;40.39;102559.88;5032704;28;20240;-57
2022/10/18 10:17:53;;;;;;;8.10;4.67;;;22.60;60.50;;;26.18;41.36;102561.59;5032687;28;20202;-56